createdAt,value
2018-01-27T00:00:13.551Z,13.70
2018-01-27T00:02:41.828Z,12.10
2018-01-27T00:05:10.157Z,12.07
2018-01-27T00:07:38.411Z,14.63
2018-01-27T00:10:06.712Z,13.17
2018-01-27T00:12:34.979Z,10.57
2018-01-27T00:15:03.313Z,12.67
2018-01-27T00:17:31.654Z,12.93
2018-01-27T00:20:00.173Z,15.90
2018-01-27T00:22:28.470Z,15.00
2018-01-27T00:24:56.778Z,13.00
2018-01-27T00:27:25.095Z,11.50
2018-01-27T00:29:53.383Z,14.80
2018-01-27T00:32:21.679Z,15.18
2018-01-27T00:34:49.951Z,14.73
2018-01-27T00:37:18.260Z,13.52
2018-01-27T00:39:46.521Z,11.00
2018-01-27T00:42:14.780Z,9.20
2018-01-27T00:44:43.058Z,10.03
2018-01-27T00:47:11.336Z,8.52
2018-01-27T00:49:40.542Z,7.80
2018-01-27T00:52:08.808Z,11.25
2018-01-27T00:54:37.115Z,9.30
2018-01-27T00:57:06.234Z,6.82
2018-01-27T00:59:34.555Z,9.77
2018-01-27T01:02:02.832Z,9.00
2018-01-27T01:04:31.219Z,10.30
2018-01-27T01:06:59.494Z,9.27
2018-01-27T01:09:27.783Z,11.70
2018-01-27T01:11:56.076Z,10.37
2018-01-27T01:14:24.339Z,10.67
2018-01-27T01:16:52.646Z,8.20
2018-01-27T01:19:20.948Z,14.00
2018-01-27T01:21:49.266Z,10.00
2018-01-27T01:24:17.531Z,12.40
2018-01-27T01:26:46.423Z,11.47
2018-01-27T01:29:14.736Z,17.50
2018-01-27T01:31:43.020Z,18.43
2018-01-27T01:34:11.291Z,15.13
2018-01-27T01:36:39.606Z,22.80
2018-01-27T01:39:07.913Z,12.47
2018-01-27T01:41:36.181Z,15.60
2018-01-27T01:44:10.470Z,15.68
2018-01-27T01:46:38.739Z,14.77
2018-01-27T01:49:19.040Z,14.67
2018-01-27T01:51:47.268Z,17.40
2018-01-27T01:54:15.575Z,9.50
2018-01-27T01:56:43.868Z,12.13
2018-01-27T01:59:12.149Z,9.67
2018-01-27T02:01:40.427Z,11.23
2018-01-27T02:04:08.703Z,11.60
2018-01-27T02:06:36.990Z,9.53
2018-01-27T02:09:05.266Z,14.23
2018-01-27T02:11:33.580Z,9.90
2018-01-27T02:14:01.855Z,12.70
2018-01-27T02:16:30.164Z,13.40
2018-01-27T02:18:58.464Z,10.57
2018-01-27T02:21:26.778Z,9.50
2018-01-27T02:23:55.049Z,11.00
2018-01-27T02:26:23.366Z,11.97
2018-01-27T02:28:52.871Z,9.97
2018-01-27T02:31:21.157Z,10.32
2018-01-27T02:33:49.496Z,12.50
2018-01-27T02:36:17.751Z,9.82
2018-01-27T02:38:46.051Z,10.97
2018-01-27T02:41:14.328Z,12.43
2018-01-27T02:43:42.670Z,11.50
2018-01-27T02:46:11.030Z,12.03
2018-01-27T02:48:39.353Z,9.43
2018-01-27T02:51:07.618Z,10.97
2018-01-27T02:53:35.929Z,13.57
2018-01-27T02:56:04.882Z,10.00
2018-01-27T02:58:33.151Z,11.20
2018-01-27T03:01:01.448Z,10.07
2018-01-27T03:03:29.735Z,11.90
2018-01-27T03:05:58.036Z,18.30
2018-01-27T03:08:26.319Z,14.13
2018-01-27T03:10:54.651Z,13.20
2018-01-27T03:13:22.922Z,11.10
2018-01-27T03:15:51.218Z,13.90
2018-01-27T03:18:19.523Z,11.23
2018-01-27T03:20:47.815Z,15.83
2018-01-27T03:23:16.102Z,19.00
2018-01-27T03:25:44.378Z,14.00
2018-01-27T03:28:12.994Z,12.50
2018-01-27T03:30:41.271Z,18.52
2018-01-27T03:33:09.611Z,14.20
2018-01-27T03:35:37.852Z,13.83
2018-01-27T03:38:06.154Z,13.60
2018-01-27T03:40:34.423Z,10.98
2018-01-27T03:43:02.731Z,12.57
2018-01-27T03:45:31.004Z,13.03
2018-01-27T03:47:59.321Z,11.83
2018-01-27T03:50:27.610Z,15.02
2018-01-27T03:52:55.898Z,15.87
2018-01-27T03:55:24.162Z,17.23
2018-01-27T03:57:52.527Z,13.23
2018-01-27T04:00:20.815Z,13.87
2018-01-27T04:02:49.079Z,14.13
2018-01-27T04:05:17.374Z,18.33
2018-01-27T04:07:45.647Z,15.43
2018-01-27T04:10:13.934Z,15.23
2018-01-27T04:12:42.196Z,16.83
2018-01-27T04:15:10.492Z,18.40
2018-01-27T04:17:38.770Z,47.13
2018-01-27T04:20:07.055Z,25.90
2018-01-27T04:22:35.347Z,67.73
2018-01-27T04:25:03.619Z,20.50
2018-01-27T04:27:31.931Z,21.93
2018-01-27T04:30:00.752Z,21.07
2018-01-27T04:32:29.044Z,23.53
2018-01-27T04:34:57.338Z,16.60
2018-01-27T04:37:25.618Z,18.57
2018-01-27T04:39:53.903Z,19.50
2018-01-27T04:42:23.098Z,19.03
2018-01-27T04:44:51.398Z,18.77
2018-01-27T04:47:19.687Z,22.87
2018-01-27T04:49:48.003Z,18.30
2018-01-27T04:52:16.284Z,19.23
2018-01-27T04:54:44.589Z,17.83
2018-01-27T04:57:12.850Z,13.97
2018-01-27T04:59:41.173Z,16.40
2018-01-27T05:02:09.483Z,14.13
2018-01-27T05:04:37.796Z,18.17
2018-01-27T05:07:06.104Z,13.87
2018-01-27T05:09:34.409Z,16.10
2018-01-27T05:12:02.706Z,19.93
2018-01-27T05:14:30.987Z,28.73
2018-01-27T05:16:59.308Z,45.83
2018-01-27T05:19:27.630Z,89.00
2018-01-27T05:21:55.907Z,42.77
2018-01-27T05:24:24.203Z,43.40
2018-01-27T05:26:52.471Z,76.37
2018-01-27T05:29:20.804Z,64.43
2018-01-27T05:31:49.119Z,146.40
2018-01-27T05:34:17.442Z,137.82
2018-01-27T05:36:45.739Z,75.30
2018-01-27T05:39:14.041Z,78.85
2018-01-27T05:41:42.350Z,146.90
2018-01-27T05:44:10.622Z,94.20
2018-01-27T05:46:38.947Z,128.80
2018-01-27T05:49:08.144Z,268.93
2018-01-27T05:51:36.450Z,163.68
2018-01-27T05:54:04.733Z,295.23
2018-01-27T05:56:33.039Z,218.40
2018-01-27T05:59:01.320Z,88.93
2018-01-27T06:01:29.624Z,168.50
2018-01-27T06:03:57.911Z,192.73
2018-01-27T06:06:26.223Z,162.67
2018-01-27T06:08:54.508Z,141.63
2018-01-27T06:11:22.801Z,83.77
2018-01-27T06:13:51.095Z,103.40
2018-01-27T06:16:19.425Z,84.00
2018-01-27T06:18:47.695Z,58.05
2018-01-27T06:21:16.011Z,129.82
2018-01-27T06:23:44.283Z,81.47
2018-01-27T06:26:12.554Z,49.40
2018-01-27T06:28:40.839Z,75.65
2018-01-27T06:31:09.110Z,59.77
2018-01-27T06:33:37.461Z,46.30
2018-01-27T06:36:05.761Z,96.53
2018-01-27T06:38:34.126Z,55.30
2018-01-27T06:41:02.395Z,43.03
2018-01-27T06:43:30.727Z,52.10
2018-01-27T06:45:59.059Z,56.00
2018-01-27T06:48:27.343Z,46.30
2018-01-27T06:50:56.208Z,69.27
2018-01-27T06:53:24.497Z,51.23
2018-01-27T06:55:52.840Z,63.70
2018-01-27T06:58:21.054Z,25.17
2018-01-27T07:00:49.403Z,87.00
2018-01-27T07:03:17.694Z,43.87
2018-01-27T07:05:46.004Z,66.50
2018-01-27T07:08:14.273Z,82.65
2018-01-27T07:10:42.582Z,33.27
2018-01-27T07:13:10.875Z,115.63
2018-01-27T07:15:39.172Z,55.47
2018-01-27T07:18:07.505Z,44.17
2018-01-27T07:20:35.775Z,36.33
2018-01-27T07:23:05.118Z,91.82
2018-01-27T07:25:33.368Z,76.97
2018-01-27T07:28:01.684Z,80.23
2018-01-27T07:30:29.962Z,26.37
2018-01-27T07:32:58.291Z,72.05
2018-01-27T07:35:26.618Z,86.00
2018-01-27T07:37:54.905Z,66.83
2018-01-27T07:40:23.211Z,48.72
2018-01-27T07:42:51.561Z,33.83
2018-01-27T07:45:19.835Z,49.90
2018-01-27T07:47:48.136Z,19.58
2018-01-27T07:50:16.438Z,99.37
2018-01-27T07:52:44.767Z,38.00
2018-01-27T07:55:13.091Z,28.90
2018-01-27T07:57:41.422Z,37.10
2018-01-27T08:00:09.725Z,57.73
2018-01-27T08:02:38.017Z,33.37
2018-01-27T08:05:06.284Z,30.43
2018-01-27T08:07:34.608Z,46.03
2018-01-27T08:10:02.884Z,52.13
2018-01-27T08:12:31.193Z,21.03
2018-01-27T08:14:59.522Z,29.30
2018-01-27T08:17:27.770Z,28.83
2018-01-27T08:19:56.144Z,28.87
2018-01-27T08:22:24.380Z,46.47
2018-01-27T08:24:52.676Z,29.30
2018-01-27T08:27:21.178Z,76.80
2018-01-27T08:29:49.919Z,37.23
2018-01-27T08:32:18.267Z,23.23
2018-01-27T08:34:46.618Z,34.57
2018-01-27T08:37:15.859Z,48.15
2018-01-27T08:39:44.135Z,28.30
2018-01-27T08:42:12.471Z,16.27
2018-01-27T08:44:40.703Z,22.93
2018-01-27T08:47:09.018Z,41.00
2018-01-27T08:49:37.290Z,28.42
2018-01-27T08:52:05.628Z,24.13
2018-01-27T08:54:33.913Z,24.90
2018-01-27T08:57:02.222Z,21.40
2018-01-27T08:59:30.530Z,15.07
2018-01-27T09:01:58.861Z,20.93
2018-01-27T09:04:27.155Z,32.87
2018-01-27T09:06:55.430Z,30.37
2018-01-27T09:09:24.290Z,25.77
2018-01-27T09:11:52.692Z,34.33
2018-01-27T09:14:21.012Z,21.85
2018-01-27T09:16:49.476Z,17.47
2018-01-27T09:19:17.679Z,24.33
2018-01-27T09:21:45.987Z,32.33
2018-01-27T09:24:14.255Z,18.50
2018-01-27T09:26:42.556Z,15.90
2018-01-27T09:29:10.872Z,14.65
2018-01-27T09:31:39.163Z,13.30
2018-01-27T09:34:07.584Z,13.20
2018-01-27T09:36:35.913Z,17.47
2018-01-27T09:39:04.210Z,14.37
2018-01-27T09:41:33.458Z,15.37
2018-01-27T09:44:01.771Z,14.70
2018-01-27T09:46:30.081Z,23.95
2018-01-27T09:48:59.393Z,11.73
2018-01-27T09:51:27.712Z,18.00
2018-01-27T09:53:56.005Z,11.70
2018-01-27T09:56:24.270Z,21.23
2018-01-27T09:58:52.559Z,21.40
2018-01-27T10:01:20.871Z,26.60
2018-01-27T10:03:49.146Z,19.37
2018-01-27T10:06:17.497Z,18.10
2018-01-27T10:08:45.763Z,21.97
2018-01-27T10:11:14.061Z,22.40
2018-01-27T10:13:42.378Z,21.13
2018-01-27T10:16:10.666Z,22.52
2018-01-27T10:18:38.975Z,17.90
2018-01-27T10:21:07.318Z,20.90
2018-01-27T10:23:35.619Z,30.87
2018-01-27T10:26:03.902Z,19.90
2018-01-27T10:28:32.161Z,23.47
2018-01-27T10:31:00.648Z,22.83
2018-01-27T10:33:28.908Z,35.23
2018-01-27T10:35:57.205Z,28.37
2018-01-27T10:38:25.487Z,21.57
2018-01-27T10:40:53.823Z,22.87
2018-01-27T10:43:22.125Z,21.07
2018-01-27T10:45:50.407Z,28.48
2018-01-27T10:48:18.744Z,28.62
2018-01-27T10:50:47.103Z,30.15
2018-01-27T10:53:16.032Z,23.43
2018-01-27T10:55:44.346Z,29.70
2018-01-27T10:58:13.192Z,24.50
2018-01-27T11:00:41.518Z,23.20
2018-01-27T11:03:09.865Z,24.87
2018-01-27T11:05:38.141Z,25.77
2018-01-27T11:08:06.506Z,29.60
2018-01-27T11:10:34.786Z,30.17
2018-01-27T11:13:03.111Z,27.03
2018-01-27T11:15:31.383Z,28.60
2018-01-27T11:17:59.695Z,21.73
2018-01-27T11:20:28.019Z,21.47
2018-01-27T11:22:56.344Z,18.73
2018-01-27T11:25:24.618Z,18.13
2018-01-27T11:27:52.922Z,18.85
2018-01-27T11:30:21.224Z,20.92
2018-01-27T11:32:49.507Z,20.50
2018-01-27T11:35:17.823Z,15.20
2018-01-27T11:37:46.952Z,11.27
2018-01-27T11:40:15.475Z,14.60
2018-01-27T11:42:43.781Z,13.33
2018-01-27T11:45:12.135Z,14.00
2018-01-27T11:47:40.407Z,10.37
2018-01-27T11:50:08.853Z,13.93
2018-01-27T11:52:37.100Z,11.10
2018-01-27T11:55:06.494Z,11.97
2018-01-27T11:57:36.478Z,12.70
2018-01-27T12:00:04.919Z,14.45
2018-01-27T12:02:33.247Z,13.57
2018-01-27T12:05:01.650Z,15.77
2018-01-27T12:07:29.938Z,11.13
2018-01-27T12:10:00.152Z,13.50
2018-01-27T12:12:30.775Z,13.00
2018-01-27T12:14:59.062Z,17.93
2018-01-27T12:17:27.415Z,13.00
2018-01-27T12:19:55.729Z,16.83
2018-01-27T12:22:24.806Z,13.00
2018-01-27T12:24:53.175Z,17.67
2018-01-27T12:27:21.452Z,14.48
2018-01-27T12:29:49.796Z,19.57
2018-01-27T12:32:19.065Z,12.88
2018-01-27T12:34:47.330Z,16.47
2018-01-27T12:37:15.676Z,14.93
2018-01-27T12:39:43.938Z,22.80
2018-01-27T12:42:13.540Z,22.27
2018-01-27T12:44:41.816Z,22.70
2018-01-27T12:47:10.327Z,20.73
2018-01-27T12:49:38.719Z,20.60
2018-01-27T12:52:07.062Z,19.10
2018-01-27T12:54:35.360Z,14.40
2018-01-27T12:57:04.296Z,19.60
2018-01-27T12:59:32.593Z,18.00
2018-01-27T13:02:00.872Z,18.03
2018-01-27T13:04:29.192Z,15.87
2018-01-27T13:06:57.512Z,17.40
2018-01-27T13:09:25.830Z,16.70
2018-01-27T13:11:55.200Z,16.43
2018-01-27T13:14:23.495Z,18.40
2018-01-27T13:16:51.787Z,15.77
2018-01-27T13:19:20.074Z,19.93
2018-01-27T13:21:48.371Z,18.27
2018-01-27T13:24:16.709Z,18.12
2018-01-27T13:26:44.976Z,20.87
2018-01-27T13:29:13.361Z,19.33
2018-01-27T13:31:41.639Z,24.27
2018-01-27T13:34:09.979Z,19.70
2018-01-27T13:36:38.390Z,19.73
2018-01-27T13:39:06.795Z,20.47
2018-01-27T13:41:35.120Z,26.43
2018-01-27T13:44:03.394Z,28.33
2018-01-27T13:46:31.709Z,19.07
2018-01-27T13:48:59.976Z,16.23
2018-01-27T13:51:28.291Z,18.27
2018-01-27T13:53:56.582Z,18.80
2018-01-27T13:56:24.894Z,18.73
2018-01-27T13:58:53.219Z,19.73
2018-01-27T14:01:22.095Z,17.52
2018-01-27T14:03:52.983Z,21.43
2018-01-27T14:06:21.386Z,22.50
2018-01-27T14:08:49.816Z,18.37
2018-01-27T14:11:18.115Z,21.00
2018-01-27T14:13:46.455Z,24.93
2018-01-27T14:16:14.779Z,22.43
2018-01-27T14:18:43.059Z,19.23
2018-01-27T14:21:11.375Z,22.73
2018-01-27T14:23:39.649Z,24.73
2018-01-27T14:26:08.029Z,36.70
2018-01-27T14:28:36.400Z,21.53
2018-01-27T14:31:04.699Z,24.50
2018-01-27T14:33:32.985Z,20.80
2018-01-27T14:36:01.280Z,18.67
2018-01-27T14:38:29.663Z,22.80
2018-01-27T14:40:58.863Z,23.63
2018-01-27T14:43:27.161Z,21.00
2018-01-27T14:45:55.470Z,27.30
2018-01-27T14:48:23.759Z,24.80
2018-01-27T14:50:52.460Z,24.80
2018-01-27T14:53:20.825Z,22.33
2018-01-27T14:55:49.071Z,19.57
2018-01-27T14:58:17.395Z,24.87
2018-01-27T15:00:45.712Z,23.70
2018-01-27T15:03:14.059Z,21.20
2018-01-27T15:05:42.397Z,35.30
2018-01-27T15:08:10.798Z,26.67
2018-01-27T15:10:39.271Z,20.73
2018-01-27T15:13:08.364Z,25.73
2018-01-27T15:15:36.680Z,23.20
2018-01-27T15:18:04.995Z,23.97
2018-01-27T15:20:33.323Z,28.30
2018-01-27T15:23:01.881Z,22.57
2018-01-27T15:25:30.180Z,27.63
2018-01-27T15:27:58.534Z,23.00
2018-01-27T15:30:26.868Z,22.00
2018-01-27T15:32:55.132Z,25.73
2018-01-27T15:35:23.428Z,22.70
2018-01-27T15:37:51.706Z,27.03
2018-01-27T15:40:20.135Z,22.65
2018-01-27T15:42:48.454Z,38.45
2018-01-27T15:45:16.741Z,26.63
2018-01-27T15:47:45.094Z,22.47
2018-01-27T15:50:20.452Z,25.53
2018-01-27T15:52:48.726Z,29.20
2018-01-27T15:55:17.054Z,31.37
2018-01-27T15:57:45.366Z,26.30
2018-01-27T16:00:13.643Z,27.00
2018-01-27T16:02:41.943Z,28.70
2018-01-27T16:05:11.100Z,27.57
2018-01-27T16:07:39.444Z,26.50
2018-01-27T16:10:07.763Z,24.67
2018-01-27T16:12:36.062Z,32.70
2018-01-27T16:15:04.322Z,29.60
2018-01-27T16:17:32.628Z,25.63
2018-01-27T16:20:00.926Z,26.40
2018-01-27T16:22:29.289Z,26.63
2018-01-27T16:24:58.230Z,28.97
2018-01-27T16:27:26.490Z,34.00
2018-01-27T16:29:54.810Z,32.43
2018-01-27T16:32:23.109Z,28.77
2018-01-27T16:34:51.391Z,36.63
2018-01-27T16:37:19.668Z,29.43
2018-01-27T16:39:47.950Z,30.97
2018-01-27T16:42:16.207Z,30.37
2018-01-27T16:44:44.503Z,32.93
2018-01-27T16:47:12.787Z,38.07
2018-01-27T16:49:41.982Z,31.00
2018-01-27T16:52:10.255Z,29.77
2018-01-27T16:54:38.569Z,31.03
2018-01-27T16:57:06.848Z,27.63
2018-01-27T16:59:35.145Z,26.33
2018-01-27T17:02:03.429Z,26.17
2018-01-27T17:04:31.696Z,24.47
2018-01-27T17:07:00.085Z,28.63
2018-01-27T17:09:28.328Z,22.70
2018-01-27T17:11:56.639Z,21.77
2018-01-27T17:14:24.945Z,20.90
2018-01-27T17:16:53.246Z,20.33
2018-01-27T17:19:21.535Z,19.23
2018-01-27T17:21:49.811Z,18.70
2018-01-27T17:24:18.126Z,17.17
2018-01-27T17:26:46.410Z,18.27
2018-01-27T17:29:14.723Z,14.80
2018-01-27T17:31:42.963Z,16.13
2018-01-27T17:34:11.271Z,15.20
2018-01-27T17:36:39.570Z,20.30
2018-01-27T17:39:07.876Z,20.53
2018-01-27T17:41:36.178Z,20.30
2018-01-27T17:44:04.457Z,16.40
2018-01-27T17:46:32.759Z,14.90
2018-01-27T17:49:01.027Z,17.13
2018-01-27T17:51:29.453Z,21.40
2018-01-27T17:53:57.736Z,19.87
2018-01-27T17:56:26.022Z,25.67
2018-01-27T17:58:54.287Z,20.20
2018-01-27T18:01:22.598Z,24.80
2018-01-27T18:03:50.859Z,30.23
2018-01-27T18:06:19.176Z,23.27
2018-01-27T18:08:47.468Z,24.03
2018-01-27T18:11:16.192Z,23.93
2018-01-27T18:13:44.471Z,26.97
2018-01-27T18:16:13.040Z,23.50
2018-01-27T18:18:41.334Z,24.53
2018-01-27T18:21:09.610Z,26.57
2018-01-27T18:23:37.902Z,24.30
2018-01-27T18:26:06.201Z,29.70
2018-01-27T18:28:34.488Z,23.87
2018-01-27T18:31:02.794Z,23.60
2018-01-27T18:33:31.074Z,27.10
2018-01-27T18:35:59.364Z,29.40
2018-01-27T18:38:27.632Z,30.67
2018-01-27T18:40:55.940Z,29.40
2018-01-27T18:43:24.722Z,25.13
2018-01-27T18:45:53.078Z,28.20
2018-01-27T18:48:21.350Z,25.47
2018-01-27T18:50:49.709Z,27.90
2018-01-27T18:53:17.961Z,31.97
2018-01-27T18:55:46.274Z,24.33
2018-01-27T18:58:14.567Z,23.90
2018-01-27T19:00:42.835Z,26.67
2018-01-27T19:03:11.127Z,27.30
2018-01-27T19:05:39.533Z,24.83
2018-01-27T19:08:07.838Z,25.17
2018-01-27T19:10:36.086Z,29.83
2018-01-27T19:13:04.363Z,32.13
2018-01-27T19:15:32.686Z,26.70
2018-01-27T19:18:01.050Z,25.03
2018-01-27T19:20:29.379Z,31.13
2018-01-27T19:22:57.649Z,27.07
2018-01-27T19:25:25.939Z,30.53
2018-01-27T19:27:54.558Z,23.43
2018-01-27T19:30:22.842Z,27.57
2018-01-27T19:32:51.155Z,26.80
2018-01-27T19:35:19.419Z,28.60
2018-01-27T19:37:47.768Z,28.43
2018-01-27T19:40:16.062Z,24.50
2018-01-27T19:42:44.367Z,27.60
2018-01-27T19:45:12.667Z,31.67
2018-01-27T19:47:41.046Z,23.43
2018-01-27T19:50:09.327Z,26.73
2018-01-27T19:52:37.628Z,25.97
2018-01-27T19:55:05.895Z,26.63
2018-01-27T19:57:34.537Z,24.87
2018-01-27T20:00:02.822Z,24.50
2018-01-27T20:02:31.226Z,37.80
2018-01-27T20:04:59.590Z,24.67
2018-01-27T20:07:27.871Z,24.80
2018-01-27T20:09:56.185Z,20.47
2018-01-27T20:12:24.479Z,22.53
2018-01-27T20:14:52.779Z,19.17
2018-01-27T20:17:21.052Z,20.03
2018-01-27T20:19:49.369Z,19.50
2018-01-27T20:22:17.646Z,23.07
2018-01-27T20:24:45.955Z,31.50
2018-01-27T20:27:14.253Z,21.37
2018-01-27T20:29:42.528Z,22.90
2018-01-27T20:32:10.836Z,34.20
2018-01-27T20:34:39.115Z,26.87
2018-01-27T20:37:07.412Z,24.17
2018-01-27T20:39:35.785Z,22.67
2018-01-27T20:42:04.074Z,22.00
2018-01-27T20:44:32.372Z,24.90
2018-01-27T20:47:00.796Z,20.47
2018-01-27T20:49:29.139Z,24.77
2018-01-27T20:51:57.449Z,19.87
2018-01-27T20:54:25.683Z,25.80
2018-01-27T20:56:54.020Z,17.47
2018-01-27T20:59:22.311Z,22.53
2018-01-27T21:01:50.633Z,21.87
2018-01-27T21:04:18.911Z,19.40
2018-01-27T21:06:47.202Z,22.00
2018-01-27T21:09:15.470Z,25.23
2018-01-27T21:11:43.796Z,21.10
2018-01-27T21:14:12.056Z,18.03
2018-01-27T21:16:40.363Z,20.33
2018-01-27T21:19:08.644Z,19.53
2018-01-27T21:21:36.923Z,18.10
2018-01-27T21:24:05.219Z,21.90
2018-01-27T21:26:33.490Z,21.23
2018-01-27T21:29:01.802Z,18.60
2018-01-27T21:31:30.267Z,19.80
2018-01-27T21:33:58.497Z,21.20
2018-01-27T21:36:26.787Z,22.40
2018-01-27T21:38:55.068Z,23.13
2018-01-27T21:41:23.351Z,18.27
2018-01-27T21:43:51.636Z,16.40
2018-01-27T21:46:19.947Z,19.43
2018-01-27T21:48:48.211Z,14.47
2018-01-27T21:51:16.543Z,16.00
2018-01-27T21:53:44.931Z,19.00
2018-01-27T21:56:13.283Z,16.80
2018-01-27T21:58:41.552Z,21.57
2018-01-27T22:01:09.863Z,18.30
2018-01-27T22:03:38.148Z,18.80
2018-01-27T22:06:06.867Z,20.00
2018-01-27T22:08:35.285Z,23.03
2018-01-27T22:11:03.550Z,23.20
2018-01-27T22:13:31.847Z,18.67
2018-01-27T22:16:00.938Z,20.50
2018-01-27T22:18:29.232Z,19.50
2018-01-27T22:20:57.494Z,23.50
2018-01-27T22:23:25.981Z,24.20
2018-01-27T22:25:54.219Z,24.63
2018-01-27T22:28:22.533Z,25.80
2018-01-27T22:30:50.807Z,30.03
2018-01-27T22:33:19.098Z,28.20
2018-01-27T22:35:47.409Z,22.47
2018-01-27T22:38:15.669Z,30.90
2018-01-27T22:40:43.977Z,29.03
2018-01-27T22:43:12.280Z,28.83
2018-01-27T22:45:40.627Z,25.67
2018-01-27T22:48:08.932Z,26.20
2018-01-27T22:50:37.244Z,23.83
2018-01-27T22:53:05.563Z,26.03
2018-01-27T22:55:33.849Z,25.97
2018-01-27T22:58:02.159Z,30.50
2018-01-27T23:00:30.424Z,20.30
2018-01-27T23:02:58.711Z,29.57
2018-01-27T23:05:26.998Z,25.90
2018-01-27T23:07:55.299Z,25.00
2018-01-27T23:10:23.578Z,22.20
2018-01-27T23:12:51.894Z,23.43
2018-01-27T23:15:20.762Z,25.80
2018-01-27T23:17:49.088Z,26.30
2018-01-27T23:20:18.080Z,28.00
2018-01-27T23:22:46.360Z,28.07
2018-01-27T23:25:14.695Z,25.43
2018-01-27T23:27:42.976Z,29.87
2018-01-27T23:30:11.269Z,24.47
2018-01-27T23:32:39.544Z,23.63
2018-01-27T23:35:07.827Z,24.63
2018-01-27T23:37:36.111Z,23.93
2018-01-27T23:40:06.031Z,26.47
2018-01-27T23:42:34.308Z,25.03
2018-01-27T23:45:02.618Z,29.93
2018-01-27T23:47:30.911Z,29.70
2018-01-27T23:49:59.254Z,27.93
2018-01-27T23:52:27.495Z,25.40
2018-01-27T23:54:55.797Z,21.80
2018-01-27T23:57:24.141Z,20.67
2018-01-27T23:59:52.479Z,21.70
